sensor_id;sensor_type;location;lat;lon;timestamp;temperature;humidity
59208;DHT22;44977;53.132;6.408;2023-11-19T00:01:33;11.10;99.90
59208;DHT22;44977;53.132;6.408;2023-11-19T00:06:34;11.20;99.90
59208;DHT22;44977;53.132;6.408;2023-11-19T00:11:35;11.30;99.90
59208;DHT22;44977;53.132;6.408;2023-11-19T00:16:35;11.40;99.90
59208;DHT22;44977;53.132;6.408;2023-11-19T00:21:36;11.40;99.90
59208;DHT22;44977;53.132;6.408;2023-11-19T00:26:37;11.50;99.90
59208;DHT22;44977;53.132;6.408;2023-11-19T00:31:37;11.60;99.90
59208;DHT22;44977;53.132;6.408;2023-11-19T00:36:39;11.60;99.90
59208;DHT22;44977;53.132;6.408;2023-11-19T00:41:39;11.70;99.90
59208;DHT22;44977;53.132;6.408;2023-11-19T00:46:40;11.70;99.90
59208;DHT22;44977;53.132;6.408;2023-11-19T00:51:41;11.80;99.90
59208;DHT22;44977;53.132;6.408;2023-11-19T00:56:41;11.80;99.90
59208;DHT22;44977;53.132;6.408;2023-11-19T01:01:42;11.90;99.90
59208;DHT22;44977;53.132;6.408;2023-11-19T01:06:43;11.90;99.90
59208;DHT22;44977;53.132;6.408;2023-11-19T01:11:45;11.90;99.90
59208;DHT22;44977;53.132;6.408;2023-11-19T01:16:45;11.90;99.90
59208;DHT22;44977;53.132;6.408;2023-11-19T01:21:46;12.00;99.90
59208;DHT22;44977;53.132;6.408;2023-11-19T01:26:47;12.00;99.90
59208;DHT22;44977;53.132;6.408;2023-11-19T01:31:47;12.00;99.90
59208;DHT22;44977;53.132;6.408;2023-11-19T01:36:48;12.10;99.90
59208;DHT22;44977;53.132;6.408;2023-11-19T01:41:49;12.10;99.90
59208;DHT22;44977;53.132;6.408;2023-11-19T01:46:49;12.10;99.90
59208;DHT22;44977;53.132;6.408;2023-11-19T01:51:50;12.00;99.90
59208;DHT22;44977;53.132;6.408;2023-11-19T01:56:53;12.00;99.90
59208;DHT22;44977;53.132;6.408;2023-11-19T02:01:57;12.00;99.90
59208;DHT22;44977;53.132;6.408;2023-11-19T02:06:58;12.00;99.90
59208;DHT22;44977;53.132;6.408;2023-11-19T02:11:59;12.00;99.90
59208;DHT22;44977;53.132;6.408;2023-11-19T02:17:00;12.00;99.90
59208;DHT22;44977;53.132;6.408;2023-11-19T02:22:00;12.00;99.90
59208;DHT22;44977;53.132;6.408;2023-11-19T02:27:13;12.00;99.90
59208;DHT22;44977;53.132;6.408;2023-11-19T02:32:16;12.00;99.90
59208;DHT22;44977;53.132;6.408;2023-11-19T02:37:17;12.00;99.90
59208;DHT22;44977;53.132;6.408;2023-11-19T02:42:19;12.00;99.90
59208;DHT22;44977;53.132;6.408;2023-11-19T02:47:20;11.90;99.90
59208;DHT22;44977;53.132;6.408;2023-11-19T02:52:21;12.00;99.90
59208;DHT22;44977;53.132;6.408;2023-11-19T02:57:22;11.90;99.90
59208;DHT22;44977;53.132;6.408;2023-11-19T03:02:23;11.80;99.90
59208;DHT22;44977;53.132;6.408;2023-11-19T03:07:25;11.80;99.90
59208;DHT22;44977;53.132;6.408;2023-11-19T03:12:26;11.80;99.90
59208;DHT22;44977;53.132;6.408;2023-11-19T03:17:26;11.80;99.90
59208;DHT22;44977;53.132;6.408;2023-11-19T03:22:27;11.80;99.90
59208;DHT22;44977;53.132;6.408;2023-11-19T03:27:28;11.80;99.90
59208;DHT22;44977;53.132;6.408;2023-11-19T03:32:28;11.70;99.90
59208;DHT22;44977;53.132;6.408;2023-11-19T03:37:29;11.80;99.90
59208;DHT22;44977;53.132;6.408;2023-11-19T03:42:30;11.70;99.90
59208;DHT22;44977;53.132;6.408;2023-11-19T03:47:31;11.70;99.90
59208;DHT22;44977;53.132;6.408;2023-11-19T03:52:31;11.70;99.90
59208;DHT22;44977;53.132;6.408;2023-11-19T03:57:32;11.70;99.90
59208;DHT22;44977;53.132;6.408;2023-11-19T04:02:33;11.70;99.90
59208;DHT22;44977;53.132;6.408;2023-11-19T04:07:34;11.70;99.90
59208;DHT22;44977;53.132;6.408;2023-11-19T04:12:35;11.60;99.90
59208;DHT22;44977;53.132;6.408;2023-11-19T04:17:36;11.60;99.90
59208;DHT22;44977;53.132;6.408;2023-11-19T04:22:36;11.60;99.90
59208;DHT22;44977;53.132;6.408;2023-11-19T04:27:37;11.60;99.90
59208;DHT22;44977;53.132;6.408;2023-11-19T04:32:38;11.60;99.90
59208;DHT22;44977;53.132;6.408;2023-11-19T04:37:39;11.70;99.90
59208;DHT22;44977;53.132;6.408;2023-11-19T04:42:40;11.60;99.90
59208;DHT22;44977;53.132;6.408;2023-11-19T04:47:40;11.70;99.90
59208;DHT22;44977;53.132;6.408;2023-11-19T04:52:41;11.60;99.90
59208;DHT22;44977;53.132;6.408;2023-11-19T04:57:45;11.70;99.90
59208;DHT22;44977;53.132;6.408;2023-11-19T05:02:46;11.70;99.90
59208;DHT22;44977;53.132;6.408;2023-11-19T05:07:46;11.70;99.90
59208;DHT22;44977;53.132;6.408;2023-11-19T05:12:47;11.70;99.90
59208;DHT22;44977;53.132;6.408;2023-11-19T05:17:48;11.60;99.90
59208;DHT22;44977;53.132;6.408;2023-11-19T05:22:49;11.70;99.90
59208;DHT22;44977;53.132;6.408;2023-11-19T05:27:51;11.60;99.90
59208;DHT22;44977;53.132;6.408;2023-11-19T05:32:52;11.70;99.90
59208;DHT22;44977;53.132;6.408;2023-11-19T05:37:52;11.70;99.90
59208;DHT22;44977;53.132;6.408;2023-11-19T05:42:53;11.80;99.90
59208;DHT22;44977;53.132;6.408;2023-11-19T05:47:54;11.80;99.90
59208;DHT22;44977;53.132;6.408;2023-11-19T05:52:54;11.70;99.90
59208;DHT22;44977;53.132;6.408;2023-11-19T05:57:55;11.70;99.90
59208;DHT22;44977;53.132;6.408;2023-11-19T06:02:56;11.70;99.90
59208;DHT22;44977;53.132;6.408;2023-11-19T06:07:57;11.60;99.90
59208;DHT22;44977;53.132;6.408;2023-11-19T06:12:58;11.60;99.90
59208;DHT22;44977;53.132;6.408;2023-11-19T06:18:00;11.60;99.90
59208;DHT22;44977;53.132;6.408;2023-11-19T06:23:02;11.50;99.90
59208;DHT22;44977;53.132;6.408;2023-11-19T06:28:03;11.50;99.90
59208;DHT22;44977;53.132;6.408;2023-11-19T06:33:04;11.50;99.90
59208;DHT22;44977;53.132;6.408;2023-11-19T06:38:04;11.50;99.90
59208;DHT22;44977;53.132;6.408;2023-11-19T06:43:05;11.40;99.90
59208;DHT22;44977;53.132;6.408;2023-11-19T06:48:08;11.40;99.90
59208;DHT22;44977;53.132;6.408;2023-11-19T06:53:09;11.50;99.90
59208;DHT22;44977;53.132;6.408;2023-11-19T06:58:11;11.40;99.90
59208;DHT22;44977;53.132;6.408;2023-11-19T07:03:12;11.40;99.90
59208;DHT22;44977;53.132;6.408;2023-11-19T07:08:13;11.40;99.90
59208;DHT22;44977;53.132;6.408;2023-11-19T07:13:14;11.30;99.90
59208;DHT22;44977;53.132;6.408;2023-11-19T07:18:15;11.30;99.90
59208;DHT22;44977;53.132;6.408;2023-11-19T07:23:16;11.30;99.90
59208;DHT22;44977;53.132;6.408;2023-11-19T07:28:17;11.30;99.90
59208;DHT22;44977;53.132;6.408;2023-11-19T07:33:18;11.20;99.90
59208;DHT22;44977;53.132;6.408;2023-11-19T07:38:20;11.30;99.90
59208;DHT22;44977;53.132;6.408;2023-11-19T07:43:21;11.20;99.90
59208;DHT22;44977;53.132;6.408;2023-11-19T07:48:22;11.20;99.90
59208;DHT22;44977;53.132;6.408;2023-11-19T07:53:24;11.20;99.90
59208;DHT22;44977;53.132;6.408;2023-11-19T07:58:24;11.20;99.90
59208;DHT22;44977;53.132;6.408;2023-11-19T08:03:25;11.20;99.90
59208;DHT22;44977;53.132;6.408;2023-11-19T08:08:26;11.30;99.90
59208;DHT22;44977;53.132;6.408;2023-11-19T08:13:26;11.30;99.90
59208;DHT22;44977;53.132;6.408;2023-11-19T08:18:27;11.40;99.90
59208;DHT22;44977;53.132;6.408;2023-11-19T08:23:28;11.40;99.90
59208;DHT22;44977;53.132;6.408;2023-11-19T08:28:29;11.40;99.90
59208;DHT22;44977;53.132;6.408;2023-11-19T08:33:29;11.40;99.90
59208;DHT22;44977;53.132;6.408;2023-11-19T08:38:30;11.40;99.90
59208;DHT22;44977;53.132;6.408;2023-11-19T08:43:31;11.40;99.90
59208;DHT22;44977;53.132;6.408;2023-11-19T08:48:32;11.30;99.90
59208;DHT22;44977;53.132;6.408;2023-11-19T08:53:32;11.30;99.90
59208;DHT22;44977;53.132;6.408;2023-11-19T08:58:33;11.30;99.90
59208;DHT22;44977;53.132;6.408;2023-11-19T09:03:34;11.30;99.90
59208;DHT22;44977;53.132;6.408;2023-11-19T09:08:34;11.30;99.90
59208;DHT22;44977;53.132;6.408;2023-11-19T09:13:36;11.30;99.90
59208;DHT22;44977;53.132;6.408;2023-11-19T09:18:36;11.50;99.90
59208;DHT22;44977;53.132;6.408;2023-11-19T09:23:37;11.70;99.90
59208;DHT22;44977;53.132;6.408;2023-11-19T09:28:39;11.80;99.90
59208;DHT22;44977;53.132;6.408;2023-11-19T09:33:40;11.90;99.90
59208;DHT22;44977;53.132;6.408;2023-11-19T09:38:41;11.90;99.90
59208;DHT22;44977;53.132;6.408;2023-11-19T09:43:42;11.90;99.90
59208;DHT22;44977;53.132;6.408;2023-11-19T09:48:44;11.90;99.90
59208;DHT22;44977;53.132;6.408;2023-11-19T09:53:45;11.90;99.90
59208;DHT22;44977;53.132;6.408;2023-11-19T09:58:46;11.90;99.90
59208;DHT22;44977;53.132;6.408;2023-11-19T10:03:47;11.90;99.90
59208;DHT22;44977;53.132;6.408;2023-11-19T10:08:50;11.90;99.90
59208;DHT22;44977;53.132;6.408;2023-11-19T10:13:53;11.90;99.90
59208;DHT22;44977;53.132;6.408;2023-11-19T10:18:55;11.90;99.90
59208;DHT22;44977;53.132;6.408;2023-11-19T10:23:57;11.80;99.90
59208;DHT22;44977;53.132;6.408;2023-11-19T10:29:00;11.70;99.90
59208;DHT22;44977;53.132;6.408;2023-11-19T10:34:01;11.70;99.90
59208;DHT22;44977;53.132;6.408;2023-11-19T10:39:02;11.70;99.90
59208;DHT22;44977;53.132;6.408;2023-11-19T10:44:03;11.70;99.90
59208;DHT22;44977;53.132;6.408;2023-11-19T10:49:04;11.70;99.90
59208;DHT22;44977;53.132;6.408;2023-11-19T10:54:06;11.80;99.90
59208;DHT22;44977;53.132;6.408;2023-11-19T10:59:07;11.80;99.90
59208;DHT22;44977;53.132;6.408;2023-11-19T11:04:14;11.80;99.90
59208;DHT22;44977;53.132;6.408;2023-11-19T11:09:16;11.80;99.90
59208;DHT22;44977;53.132;6.408;2023-11-19T11:14:18;11.90;99.90
59208;DHT22;44977;53.132;6.408;2023-11-19T11:19:21;11.90;99.90
59208;DHT22;44977;53.132;6.408;2023-11-19T11:40:18;12.00;99.90
59208;DHT22;44977;53.132;6.408;2023-11-19T11:45:19;12.10;99.90
59208;DHT22;44977;53.132;6.408;2023-11-19T11:50:36;12.10;99.90
59208;DHT22;44977;53.132;6.408;2023-11-19T12:00:51;12.10;99.90
59208;DHT22;44977;53.132;6.408;2023-11-19T12:05:52;12.10;99.90
59208;DHT22;44977;53.132;6.408;2023-11-19T12:10:55;12.10;99.90
59208;DHT22;44977;53.132;6.408;2023-11-19T12:21:00;12.20;99.90
59208;DHT22;44977;53.132;6.408;2023-11-19T12:26:01;12.30;99.90
59208;DHT22;44977;53.132;6.408;2023-11-19T12:31:08;12.20;99.90
59208;DHT22;44977;53.132;6.408;2023-11-19T12:36:09;12.30;99.90
59208;DHT22;44977;53.132;6.408;2023-11-19T12:41:10;12.30;99.90
59208;DHT22;44977;53.132;6.408;2023-11-19T12:46:22;12.40;99.90
59208;DHT22;44977;53.132;6.408;2023-11-19T12:51:30;12.40;99.90
59208;DHT22;44977;53.132;6.408;2023-11-19T12:56:32;12.40;99.90
59208;DHT22;44977;53.132;6.408;2023-11-19T13:01:32;12.50;99.90
59208;DHT22;44977;53.132;6.408;2023-11-19T13:06:35;12.60;99.90
59208;DHT22;44977;53.132;6.408;2023-11-19T13:11:44;12.50;99.90
59208;DHT22;44977;53.132;6.408;2023-11-19T13:16:46;12.50;99.90
59208;DHT22;44977;53.132;6.408;2023-11-19T13:21:47;12.40;99.90
59208;DHT22;44977;53.132;6.408;2023-11-19T13:26:48;12.50;99.90
59208;DHT22;44977;53.132;6.408;2023-11-19T13:31:49;12.50;99.90
59208;DHT22;44977;53.132;6.408;2023-11-19T13:36:50;12.40;99.90
59208;DHT22;44977;53.132;6.408;2023-11-19T13:41:51;12.40;99.90
59208;DHT22;44977;53.132;6.408;2023-11-19T13:46:52;12.30;99.90
59208;DHT22;44977;53.132;6.408;2023-11-19T13:51:52;12.30;99.90
59208;DHT22;44977;53.132;6.408;2023-11-19T13:56:57;12.30;99.90
59208;DHT22;44977;53.132;6.408;2023-11-19T14:02:01;12.20;99.90
59208;DHT22;44977;53.132;6.408;2023-11-19T14:07:02;12.20;99.90
59208;DHT22;44977;53.132;6.408;2023-11-19T14:12:03;12.20;99.90
59208;DHT22;44977;53.132;6.408;2023-11-19T14:17:04;12.20;99.90
59208;DHT22;44977;53.132;6.408;2023-11-19T14:22:05;12.20;99.90
59208;DHT22;44977;53.132;6.408;2023-11-19T14:27:06;12.20;99.90
59208;DHT22;44977;53.132;6.408;2023-11-19T14:32:07;12.10;99.90
59208;DHT22;44977;53.132;6.408;2023-11-19T14:37:07;12.20;99.90
59208;DHT22;44977;53.132;6.408;2023-11-19T14:42:08;12.10;99.90
59208;DHT22;44977;53.132;6.408;2023-11-19T14:47:09;11.90;99.90
59208;DHT22;44977;53.132;6.408;2023-11-19T14:52:10;11.90;99.90
59208;DHT22;44977;53.132;6.408;2023-11-19T14:57:11;11.90;99.90
59208;DHT22;44977;53.132;6.408;2023-11-19T15:02:12;11.90;99.90
59208;DHT22;44977;53.132;6.408;2023-11-19T15:07:13;11.90;99.90
59208;DHT22;44977;53.132;6.408;2023-11-19T15:12:13;11.90;99.90
59208;DHT22;44977;53.132;6.408;2023-11-19T15:17:16;11.90;99.90
59208;DHT22;44977;53.132;6.408;2023-11-19T15:22:16;11.90;99.90
59208;DHT22;44977;53.132;6.408;2023-11-19T15:27:17;11.90;99.90
59208;DHT22;44977;53.132;6.408;2023-11-19T15:32:18;11.90;99.90
59208;DHT22;44977;53.132;6.408;2023-11-19T15:37:19;11.90;99.90
59208;DHT22;44977;53.132;6.408;2023-11-19T15:42:20;11.80;99.90
59208;DHT22;44977;53.132;6.408;2023-11-19T15:47:21;11.80;99.90
59208;DHT22;44977;53.132;6.408;2023-11-19T15:52:22;11.70;99.90
59208;DHT22;44977;53.132;6.408;2023-11-19T15:57:23;11.60;99.90
59208;DHT22;44977;53.132;6.408;2023-11-19T16:02:24;11.60;99.90
59208;DHT22;44977;53.132;6.408;2023-11-19T16:07:24;11.60;99.90
59208;DHT22;44977;53.132;6.408;2023-11-19T16:12:25;11.50;99.90
59208;DHT22;44977;53.132;6.408;2023-11-19T16:17:26;11.40;99.90
59208;DHT22;44977;53.132;6.408;2023-11-19T16:22:32;11.40;99.90
59208;DHT22;44977;53.132;6.408;2023-11-19T16:27:33;11.30;99.90
59208;DHT22;44977;53.132;6.408;2023-11-19T16:32:48;11.40;99.90
59208;DHT22;44977;53.132;6.408;2023-11-19T16:37:50;11.30;99.90
59208;DHT22;44977;53.132;6.408;2023-11-19T16:42:51;11.30;99.90
59208;DHT22;44977;53.132;6.408;2023-11-19T16:47:51;11.30;99.90
59208;DHT22;44977;53.132;6.408;2023-11-19T16:52:52;11.30;99.90
59208;DHT22;44977;53.132;6.408;2023-11-19T16:57:53;11.30;99.90
59208;DHT22;44977;53.132;6.408;2023-11-19T17:02:54;11.20;99.90
59208;DHT22;44977;53.132;6.408;2023-11-19T17:07:55;11.20;99.90
59208;DHT22;44977;53.132;6.408;2023-11-19T17:12:55;11.20;99.90
59208;DHT22;44977;53.132;6.408;2023-11-19T17:17:56;11.20;99.90
59208;DHT22;44977;53.132;6.408;2023-11-19T17:22:57;11.10;99.90
59208;DHT22;44977;53.132;6.408;2023-11-19T17:27:58;11.10;99.90
59208;DHT22;44977;53.132;6.408;2023-11-19T17:32:59;11.10;99.90
59208;DHT22;44977;53.132;6.408;2023-11-19T17:38:00;11.10;99.90
59208;DHT22;44977;53.132;6.408;2023-11-19T17:43:01;11.10;99.90
59208;DHT22;44977;53.132;6.408;2023-11-19T17:48:02;11.00;99.90
59208;DHT22;44977;53.132;6.408;2023-11-19T17:53:03;11.00;99.90
59208;DHT22;44977;53.132;6.408;2023-11-19T17:58:03;11.00;99.90
59208;DHT22;44977;53.132;6.408;2023-11-19T18:03:04;11.00;99.90
59208;DHT22;44977;53.132;6.408;2023-11-19T18:08:05;10.90;99.90
59208;DHT22;44977;53.132;6.408;2023-11-19T18:13:09;10.90;99.90
59208;DHT22;44977;53.132;6.408;2023-11-19T18:18:11;10.90;99.90
59208;DHT22;44977;53.132;6.408;2023-11-19T18:23:12;10.90;99.90
59208;DHT22;44977;53.132;6.408;2023-11-19T18:28:14;10.90;99.90
59208;DHT22;44977;53.132;6.408;2023-11-19T18:33:16;10.90;99.90
59208;DHT22;44977;53.132;6.408;2023-11-19T18:38:17;10.90;99.90
59208;DHT22;44977;53.132;6.408;2023-11-19T18:43:17;10.90;99.90
59208;DHT22;44977;53.132;6.408;2023-11-19T18:48:18;11.00;99.90
59208;DHT22;44977;53.132;6.408;2023-11-19T18:53:19;10.90;99.90
59208;DHT22;44977;53.132;6.408;2023-11-19T18:58:19;10.90;99.90
59208;DHT22;44977;53.132;6.408;2023-11-19T19:03:20;10.90;99.90
59208;DHT22;44977;53.132;6.408;2023-11-19T19:08:23;10.90;99.90
59208;DHT22;44977;53.132;6.408;2023-11-19T19:13:23;10.90;99.90
59208;DHT22;44977;53.132;6.408;2023-11-19T19:18:24;10.80;99.90
59208;DHT22;44977;53.132;6.408;2023-11-19T19:23:25;10.80;99.90
59208;DHT22;44977;53.132;6.408;2023-11-19T19:28:25;10.80;99.90
59208;DHT22;44977;53.132;6.408;2023-11-19T19:33:26;10.80;99.90
59208;DHT22;44977;53.132;6.408;2023-11-19T19:38:27;10.90;99.90
59208;DHT22;44977;53.132;6.408;2023-11-19T19:43:27;10.90;99.90
59208;DHT22;44977;53.132;6.408;2023-11-19T19:48:28;10.90;99.90
59208;DHT22;44977;53.132;6.408;2023-11-19T19:53:29;10.90;99.90
59208;DHT22;44977;53.132;6.408;2023-11-19T19:58:30;11.00;99.90
59208;DHT22;44977;53.132;6.408;2023-11-19T20:03:32;11.00;99.90
59208;DHT22;44977;53.132;6.408;2023-11-19T20:08:33;11.00;99.90
59208;DHT22;44977;53.132;6.408;2023-11-19T20:13:35;11.00;99.90
59208;DHT22;44977;53.132;6.408;2023-11-19T20:18:36;11.10;99.90
59208;DHT22;44977;53.132;6.408;2023-11-19T20:23:37;11.10;99.90
59208;DHT22;44977;53.132;6.408;2023-11-19T20:28:37;11.10;99.90
59208;DHT22;44977;53.132;6.408;2023-11-19T20:33:38;11.10;99.90
59208;DHT22;44977;53.132;6.408;2023-11-19T20:38:39;11.10;99.90
59208;DHT22;44977;53.132;6.408;2023-11-19T20:43:40;11.10;99.90
59208;DHT22;44977;53.132;6.408;2023-11-19T20:48:40;11.10;99.90
59208;DHT22;44977;53.132;6.408;2023-11-19T20:53:41;11.10;99.90
59208;DHT22;44977;53.132;6.408;2023-11-19T20:58:42;11.20;99.90
59208;DHT22;44977;53.132;6.408;2023-11-19T21:03:43;11.20;99.90
59208;DHT22;44977;53.132;6.408;2023-11-19T21:08:44;11.20;99.90
59208;DHT22;44977;53.132;6.408;2023-11-19T21:13:45;11.30;99.90
59208;DHT22;44977;53.132;6.408;2023-11-19T21:18:45;11.40;99.90
59208;DHT22;44977;53.132;6.408;2023-11-19T21:23:47;11.40;99.90
59208;DHT22;44977;53.132;6.408;2023-11-19T21:28:48;11.50;99.90
59208;DHT22;44977;53.132;6.408;2023-11-19T21:33:49;11.50;99.90
59208;DHT22;44977;53.132;6.408;2023-11-19T21:38:50;11.50;99.90
59208;DHT22;44977;53.132;6.408;2023-11-19T21:43:50;11.50;99.90
59208;DHT22;44977;53.132;6.408;2023-11-19T21:48:51;11.30;99.90
59208;DHT22;44977;53.132;6.408;2023-11-19T21:53:52;11.30;99.90
59208;DHT22;44977;53.132;6.408;2023-11-19T21:58:52;11.20;99.90
59208;DHT22;44977;53.132;6.408;2023-11-19T22:03:53;11.10;99.90
59208;DHT22;44977;53.132;6.408;2023-11-19T22:08:54;11.10;99.90
59208;DHT22;44977;53.132;6.408;2023-11-19T22:13:54;11.00;99.90
59208;DHT22;44977;53.132;6.408;2023-11-19T22:18:55;11.00;99.90
59208;DHT22;44977;53.132;6.408;2023-11-19T22:23:56;11.00;99.90
59208;DHT22;44977;53.132;6.408;2023-11-19T22:28:57;11.00;99.90
59208;DHT22;44977;53.132;6.408;2023-11-19T22:33:58;10.90;99.90
59208;DHT22;44977;53.132;6.408;2023-11-19T22:38:59;10.90;99.90
59208;DHT22;44977;53.132;6.408;2023-11-19T22:43:59;10.90;99.90
59208;DHT22;44977;53.132;6.408;2023-11-19T22:49:00;10.90;99.90
59208;DHT22;44977;53.132;6.408;2023-11-19T22:54:01;10.90;99.90
59208;DHT22;44977;53.132;6.408;2023-11-19T22:59:04;10.90;99.90
59208;DHT22;44977;53.132;6.408;2023-11-19T23:04:05;10.90;99.90
59208;DHT22;44977;53.132;6.408;2023-11-19T23:09:07;11.00;99.90
59208;DHT22;44977;53.132;6.408;2023-11-19T23:14:07;11.00;99.90
59208;DHT22;44977;53.132;6.408;2023-11-19T23:19:09;11.00;99.90
59208;DHT22;44977;53.132;6.408;2023-11-19T23:24:10;11.00;99.90
59208;DHT22;44977;53.132;6.408;2023-11-19T23:29:11;11.20;99.90
59208;DHT22;44977;53.132;6.408;2023-11-19T23:34:12;11.30;99.90
59208;DHT22;44977;53.132;6.408;2023-11-19T23:39:12;11.40;99.90
59208;DHT22;44977;53.132;6.408;2023-11-19T23:44:13;11.40;99.90
59208;DHT22;44977;53.132;6.408;2023-11-19T23:49:14;11.50;99.90
59208;DHT22;44977;53.132;6.408;2023-11-19T23:54:15;11.60;99.90
59208;DHT22;44977;53.132;6.408;2023-11-19T23:59:16;11.60;99.90
